sensor_id;sensor_type;location;lat;lon;timestamp;pressure;altitude;pressure_sealevel;temperature;humidity
65175;BME280;51761;42.126;24.752;2023-05-09T00:01:12;99972.38;;;12.31;100.00
65175;BME280;51761;42.126;24.752;2023-05-09T00:03:38;99972.56;;;12.21;100.00
65175;BME280;51761;42.126;24.752;2023-05-09T00:06:05;99972.41;;;12.28;100.00
65175;BME280;51761;42.126;24.752;2023-05-09T00:08:31;99952.72;;;12.12;100.00
65175;BME280;51761;42.126;24.752;2023-05-09T00:10:56;99962.97;;;12.18;100.00
65175;BME280;51761;42.126;24.752;2023-05-09T00:13:22;99967.63;;;12.28;100.00
65175;BME280;51761;42.126;24.752;2023-05-09T00:15:49;99972.50;;;12.24;100.00
65175;BME280;51761;42.126;24.752;2023-05-09T00:18:14;99980.28;;;12.36;100.00
65175;BME280;51761;42.126;24.752;2023-05-09T00:20:40;99973.06;;;12.39;100.00
65175;BME280;51761;42.126;24.752;2023-05-09T00:23:06;99963.53;;;12.33;100.00
65175;BME280;51761;42.126;24.752;2023-05-09T00:25:32;99971.47;;;12.38;100.00
65175;BME280;51761;42.126;24.752;2023-05-09T00:27:57;99976.88;;;12.48;100.00
65175;BME280;51761;42.126;24.752;2023-05-09T00:30:23;99970.16;;;12.42;100.00
65175;BME280;51761;42.126;24.752;2023-05-09T00:32:48;99977.34;;;12.43;100.00
65175;BME280;51761;42.126;24.752;2023-05-09T00:35:14;99956.28;;;12.35;100.00
65175;BME280;51761;42.126;24.752;2023-05-09T00:37:40;99959.91;;;12.36;100.00
65175;BME280;51761;42.126;24.752;2023-05-09T00:40:06;99961.03;;;12.38;100.00
65175;BME280;51761;42.126;24.752;2023-05-09T00:42:34;99986.38;;;12.54;100.00
65175;BME280;51761;42.126;24.752;2023-05-09T00:45:00;99969.69;;;12.47;100.00
65175;BME280;51761;42.126;24.752;2023-05-09T00:47:29;99990.81;;;12.52;100.00
65175;BME280;51761;42.126;24.752;2023-05-09T00:49:55;99990.28;;;12.60;100.00
65175;BME280;51761;42.126;24.752;2023-05-09T00:52:23;99991.97;;;12.54;100.00
65175;BME280;51761;42.126;24.752;2023-05-09T00:54:53;99998.38;;;12.55;100.00
65175;BME280;51761;42.126;24.752;2023-05-09T00:57:20;99991.84;;;12.61;100.00
65175;BME280;51761;42.126;24.752;2023-05-09T00:59:46;99966.50;;;12.45;100.00
65175;BME280;51761;42.126;24.752;2023-05-09T01:02:12;99987.78;;;12.65;100.00
65175;BME280;51761;42.126;24.752;2023-05-09T01:04:39;99994.88;;;12.70;100.00
65175;BME280;51761;42.126;24.752;2023-05-09T01:07:31;99981.91;;;12.57;100.00
65175;BME280;51761;42.126;24.752;2023-05-09T01:20:28;99980.16;;;12.43;100.00
65175;BME280;51761;42.126;24.752;2023-05-09T01:23:10;100006.34;;;12.56;100.00
65175;BME280;51761;42.126;24.752;2023-05-09T01:30:56;100007.81;;;12.41;100.00
65175;BME280;51761;42.126;24.752;2023-05-09T01:33:23;100007.03;;;12.41;100.00
65175;BME280;51761;42.126;24.752;2023-05-09T01:35:54;99989.66;;;12.26;100.00
65175;BME280;51761;42.126;24.752;2023-05-09T01:38:24;100008.78;;;12.31;100.00
65175;BME280;51761;42.126;24.752;2023-05-09T01:40:53;100009.97;;;12.34;100.00
65175;BME280;51761;42.126;24.752;2023-05-09T01:43:21;100008.09;;;12.24;100.00
65175;BME280;51761;42.126;24.752;2023-05-09T01:45:48;99988.78;;;12.06;100.00
65175;BME280;51761;42.126;24.752;2023-05-09T01:48:16;100015.34;;;12.21;100.00
65175;BME280;51761;42.126;24.752;2023-05-09T01:50:43;99997.44;;;12.15;100.00
65175;BME280;51761;42.126;24.752;2023-05-09T01:53:10;100009.19;;;12.30;100.00
65175;BME280;51761;42.126;24.752;2023-05-09T01:55:36;100012.94;;;12.23;100.00
65175;BME280;51761;42.126;24.752;2023-05-09T01:58:04;100011.03;;;12.17;100.00
65175;BME280;51761;42.126;24.752;2023-05-09T02:00:32;100017.47;;;12.14;100.00
65175;BME280;51761;42.126;24.752;2023-05-09T02:02:58;100015.53;;;12.11;100.00
65175;BME280;51761;42.126;24.752;2023-05-09T02:05:26;100021.59;;;12.06;100.00
65175;BME280;51761;42.126;24.752;2023-05-09T02:07:54;99998.63;;;11.91;100.00
65175;BME280;51761;42.126;24.752;2023-05-09T02:10:21;100017.59;;;12.07;100.00
65175;BME280;51761;42.126;24.752;2023-05-09T02:18:20;100026.34;;;12.09;100.00
65175;BME280;51761;42.126;24.752;2023-05-09T02:20:47;100029.09;;;12.12;100.00
65175;BME280;51761;42.126;24.752;2023-05-09T02:23:13;100015.59;;;12.04;100.00
65175;BME280;51761;42.126;24.752;2023-05-09T02:25:39;100018.31;;;12.11;100.00
65175;BME280;51761;42.126;24.752;2023-05-09T02:28:06;100034.69;;;12.12;100.00
65175;BME280;51761;42.126;24.752;2023-05-09T02:30:37;100021.16;;;12.07;100.00
65175;BME280;51761;42.126;24.752;2023-05-09T02:33:06;100027.97;;;12.06;100.00
65175;BME280;51761;42.126;24.752;2023-05-09T02:35:33;100022.50;;;11.99;100.00
65175;BME280;51761;42.126;24.752;2023-05-09T02:37:59;100033.53;;;12.10;100.00
65175;BME280;51761;42.126;24.752;2023-05-09T02:40:27;100038.28;;;12.13;100.00
65175;BME280;51761;42.126;24.752;2023-05-09T02:42:53;100039.13;;;12.10;100.00
65175;BME280;51761;42.126;24.752;2023-05-09T02:45:19;100047.09;;;12.11;100.00
65175;BME280;51761;42.126;24.752;2023-05-09T02:47:45;100039.13;;;12.10;100.00
65175;BME280;51761;42.126;24.752;2023-05-09T02:50:10;100026.06;;;12.00;100.00
65175;BME280;51761;42.126;24.752;2023-05-09T02:52:36;100037.72;;;11.98;100.00
65175;BME280;51761;42.126;24.752;2023-05-09T02:55:03;100046.38;;;12.07;100.00
65175;BME280;51761;42.126;24.752;2023-05-09T02:57:29;100041.00;;;12.16;100.00
65175;BME280;51761;42.126;24.752;2023-05-09T02:59:55;100039.91;;;12.10;100.00
65175;BME280;51761;42.126;24.752;2023-05-09T03:02:20;100045.41;;;12.17;100.00
65175;BME280;51761;42.126;24.752;2023-05-09T03:04:47;100046.53;;;12.23;100.00
65175;BME280;51761;42.126;24.752;2023-05-09T03:17:34;99984.00;;;11.50;100.00
65175;BME280;51761;42.126;24.752;2023-05-09T03:20:00;99998.25;;;11.63;100.00
65175;BME280;51761;42.126;24.752;2023-05-09T03:22:26;100020.22;;;11.91;100.00
65175;BME280;51761;42.126;24.752;2023-05-09T03:24:52;100015.13;;;11.82;100.00
65175;BME280;51761;42.126;24.752;2023-05-09T03:27:18;99992.31;;;11.57;100.00
65175;BME280;51761;42.126;24.752;2023-05-09T03:50:25;100069.59;;;12.04;100.00
65175;BME280;51761;42.126;24.752;2023-05-09T03:52:51;100034.00;;;11.78;100.00
65175;BME280;51761;42.126;24.752;2023-05-09T04:43:55;100050.63;;;12.15;100.00
65175;BME280;51761;42.126;24.752;2023-05-09T04:46:20;100029.56;;;12.07;100.00
65175;BME280;51761;42.126;24.752;2023-05-09T04:48:46;100047.66;;;12.26;100.00
65175;BME280;51761;42.126;24.752;2023-05-09T04:51:12;100115.13;;;12.61;100.00
65175;BME280;51761;42.126;24.752;2023-05-09T04:53:37;100116.72;;;12.62;100.00
65175;BME280;51761;42.126;24.752;2023-05-09T04:56:04;100108.31;;;12.62;100.00
65175;BME280;51761;42.126;24.752;2023-05-09T04:58:29;100109.91;;;12.63;100.00
65175;BME280;51761;42.126;24.752;2023-05-09T05:00:57;100115.38;;;12.70;100.00
65175;BME280;51761;42.126;24.752;2023-05-09T05:03:22;100107.22;;;12.56;100.00
65175;BME280;51761;42.126;24.752;2023-05-09T05:05:48;100104.22;;;12.44;100.00
65175;BME280;51761;42.126;24.752;2023-05-09T05:08:13;100104.63;;;12.42;100.00
65175;BME280;51761;42.126;24.752;2023-05-09T05:10:39;100105.84;;;12.41;100.00
65175;BME280;51761;42.126;24.752;2023-05-09T05:13:04;100132.84;;;12.55;100.00
65175;BME280;51761;42.126;24.752;2023-05-09T05:15:30;100130.19;;;12.44;100.00
65175;BME280;51761;42.126;24.752;2023-05-09T05:17:55;100106.06;;;12.27;100.00
65175;BME280;51761;42.126;24.752;2023-05-09T05:20:20;100106.81;;;12.31;100.00
65175;BME280;51761;42.126;24.752;2023-05-09T05:22:46;100102.06;;;12.28;100.00
65175;BME280;51761;42.126;24.752;2023-05-09T05:25:11;100128.31;;;12.38;100.00
65175;BME280;51761;42.126;24.752;2023-05-09T05:27:37;100130.19;;;12.44;100.00
65175;BME280;51761;42.126;24.752;2023-05-09T05:30:03;100128.31;;;12.38;100.00
65175;BME280;51761;42.126;24.752;2023-05-09T05:32:28;100134.66;;;12.42;100.00
65175;BME280;51761;42.126;24.752;2023-05-09T05:34:54;100138.84;;;12.30;100.00
65175;BME280;51761;42.126;24.752;2023-05-09T05:37:21;100107.38;;;12.19;100.00
65175;BME280;51761;42.126;24.752;2023-05-09T05:39:47;100133.84;;;12.41;100.00
65175;BME280;51761;42.126;24.752;2023-05-09T05:42:12;100139.56;;;12.34;100.00
65175;BME280;51761;42.126;24.752;2023-05-09T05:44:38;100127.25;;;12.28;100.00
65175;BME280;51761;42.126;24.752;2023-05-09T05:47:03;100141.47;;;12.41;100.00
65175;BME280;51761;42.126;24.752;2023-05-09T05:49:29;100145.06;;;12.41;100.00
65175;BME280;51761;42.126;24.752;2023-05-09T05:51:54;100142.78;;;12.33;100.00
65175;BME280;51761;42.126;24.752;2023-05-09T05:54:20;100148.72;;;12.38;100.00
65175;BME280;51761;42.126;24.752;2023-05-09T05:56:45;100139.09;;;12.39;100.00
65175;BME280;51761;42.126;24.752;2023-05-09T05:59:11;100141.25;;;12.28;100.00
65175;BME280;51761;42.126;24.752;2023-05-09T06:01:36;100142.41;;;12.31;100.00
65175;BME280;51761;42.126;24.752;2023-05-09T06:04:02;100132.34;;;12.37;100.00
65175;BME280;51761;42.126;24.752;2023-05-09T06:06:27;100141.03;;;12.42;100.00
65175;BME280;51761;42.126;24.752;2023-05-09T06:08:53;100133.84;;;12.41;100.00
65175;BME280;51761;42.126;24.752;2023-05-09T06:11:19;100120.44;;;12.29;100.00
65175;BME280;51761;42.126;24.752;2023-05-09T06:13:45;100139.03;;;12.43;100.00
65175;BME280;51761;42.126;24.752;2023-05-09T06:16:11;100129.53;;;12.37;100.00
65175;BME280;51761;42.126;24.752;2023-05-09T06:18:37;100118.38;;;12.33;100.00
65175;BME280;51761;42.126;24.752;2023-05-09T06:21:04;100136.25;;;12.43;100.00
65175;BME280;51761;42.126;24.752;2023-05-09T06:23:30;100127.03;;;12.42;100.00
65175;BME280;51761;42.126;24.752;2023-05-09T06:25:55;100123.38;;;12.45;100.00
65175;BME280;51761;42.126;24.752;2023-05-09T06:28:21;100148.53;;;12.75;100.00
65175;BME280;51761;42.126;24.752;2023-05-09T06:30:46;100151.72;;;12.77;100.00
65175;BME280;51761;42.126;24.752;2023-05-09T06:33:12;100150.19;;;12.72;100.00
65175;BME280;51761;42.126;24.752;2023-05-09T06:35:37;100151.81;;;12.70;100.00
65175;BME280;51761;42.126;24.752;2023-05-09T06:38:03;100155.91;;;12.65;100.00
65175;BME280;51761;42.126;24.752;2023-05-09T06:40:28;100155.53;;;12.63;100.00
65175;BME280;51761;42.126;24.752;2023-05-09T06:42:54;100151.81;;;12.70;100.00
65175;BME280;51761;42.126;24.752;2023-05-09T06:45:19;100149.94;;;12.63;100.00
65175;BME280;51761;42.126;24.752;2023-05-09T06:47:45;100147.44;;;12.69;100.00
65175;BME280;51761;42.126;24.752;2023-05-09T06:50:10;100145.22;;;12.57;100.00
65175;BME280;51761;42.126;24.752;2023-05-09T06:52:36;100145.59;;;12.59;100.00
65175;BME280;51761;42.126;24.752;2023-05-09T06:55:02;100151.56;;;12.61;100.00
65175;BME280;51761;42.126;24.752;2023-05-09T06:57:27;100155.78;;;12.72;100.00
65175;BME280;51761;42.126;24.752;2023-05-09T06:59:53;100158.16;;;12.74;100.00
65175;BME280;51761;42.126;24.752;2023-05-09T07:02:18;100158.06;;;12.81;100.00
65175;BME280;51761;42.126;24.752;2023-05-09T07:04:44;100138.16;;;12.72;100.00
65175;BME280;51761;42.126;24.752;2023-05-09T07:07:09;100159.88;;;12.91;100.00
65175;BME280;51761;42.126;24.752;2023-05-09T07:09:35;100141.88;;;12.92;100.00
65175;BME280;51761;42.126;24.752;2023-05-09T07:12:00;100162.28;;;13.15;100.00
65175;BME280;51761;42.126;24.752;2023-05-09T07:14:26;100168.25;;;13.17;100.00
65175;BME280;51761;42.126;24.752;2023-05-09T07:16:52;100166.06;;;13.51;100.00
65175;BME280;51761;42.126;24.752;2023-05-09T07:19:18;100167.31;;;13.70;100.00
65175;BME280;51761;42.126;24.752;2023-05-09T07:21:43;100179.91;;;14.01;100.00
65175;BME280;51761;42.126;24.752;2023-05-09T07:24:09;100176.66;;;14.02;100.00
65175;BME280;51761;42.126;24.752;2023-05-09T07:26:34;100168.03;;;13.74;100.00
65175;BME280;51761;42.126;24.752;2023-05-09T07:29:00;100155.72;;;13.68;100.00
65175;BME280;51761;42.126;24.752;2023-05-09T07:31:26;100171.78;;;14.06;100.00
65175;BME280;51761;42.126;24.752;2023-05-09T07:33:52;100167.91;;;14.20;100.00
65175;BME280;51761;42.126;24.752;2023-05-09T07:36:17;100170.91;;;14.28;100.00
65175;BME280;51761;42.126;24.752;2023-05-09T07:38:43;100165.75;;;14.43;100.00
65175;BME280;51761;42.126;24.752;2023-05-09T07:41:08;100163.38;;;14.41;100.00
65175;BME280;51761;42.126;24.752;2023-05-09T07:43:34;100174.59;;;14.26;100.00
65175;BME280;51761;42.126;24.752;2023-05-09T07:45:59;100172.63;;;14.42;100.00
65175;BME280;51761;42.126;24.752;2023-05-09T07:48:26;100178.63;;;14.25;100.00
65175;BME280;51761;42.126;24.752;2023-05-09T07:50:51;100175.28;;;14.29;100.00
65175;BME280;51761;42.126;24.752;2023-05-09T07:53:17;100176.81;;;14.34;100.00
65175;BME280;51761;42.126;24.752;2023-05-09T07:55:42;100183.22;;;14.34;100.00
65175;BME280;51761;42.126;24.752;2023-05-09T07:58:09;100150.44;;;14.09;100.00
65175;BME280;51761;42.126;24.752;2023-05-09T08:00:35;100179.22;;;14.13;100.00
65175;BME280;51761;42.126;24.752;2023-05-09T08:03:00;100182.22;;;14.25;100.00
65175;BME280;51761;42.126;24.752;2023-05-09T08:05:26;100157.91;;;14.34;100.00
65175;BME280;51761;42.126;24.752;2023-05-09T08:07:51;100155.19;;;14.12;98.66
65175;BME280;51761;42.126;24.752;2023-05-09T08:10:17;100176.09;;;13.91;100.00
65175;BME280;51761;42.126;24.752;2023-05-09T08:12:42;100176.66;;;14.02;100.00
65175;BME280;51761;42.126;24.752;2023-05-09T08:15:08;100163.63;;;13.73;100.00
65175;BME280;51761;42.126;24.752;2023-05-09T08:17:33;100175.63;;;13.73;100.00
65175;BME280;51761;42.126;24.752;2023-05-09T08:19:59;100169.44;;;13.62;100.00
65175;BME280;51761;42.126;24.752;2023-05-09T08:22:24;100178.53;;;13.70;100.00
65175;BME280;51761;42.126;24.752;2023-05-09T08:24:50;100162.66;;;13.60;100.00
65175;BME280;51761;42.126;24.752;2023-05-09T08:27:15;100158.16;;;13.66;100.00
65175;BME280;51761;42.126;24.752;2023-05-09T08:29:41;100183.50;;;13.82;100.00
65175;BME280;51761;42.126;24.752;2023-05-09T08:32:08;100183.63;;;13.75;100.00
65175;BME280;51761;42.126;24.752;2023-05-09T08:34:34;100173.28;;;13.72;100.00
65175;BME280;51761;42.126;24.752;2023-05-09T08:37:00;100176.44;;;13.74;100.00
65175;BME280;51761;42.126;24.752;2023-05-09T08:39:26;100168.38;;;13.76;100.00
65175;BME280;51761;42.126;24.752;2023-05-09T08:41:55;100180.28;;;13.83;100.00
65175;BME280;51761;42.126;24.752;2023-05-09T08:44:22;100172.81;;;13.73;100.00
65175;BME280;51761;42.126;24.752;2023-05-09T08:46:51;100168.88;;;13.71;100.00
65175;BME280;51761;42.126;24.752;2023-05-09T08:49:19;100159.84;;;13.60;100.00
65175;BME280;51761;42.126;24.752;2023-05-09T08:51:46;100185.63;;;13.74;100.00
65175;BME280;51761;42.126;24.752;2023-05-09T08:54:12;100183.63;;;13.75;100.00
65175;BME280;51761;42.126;24.752;2023-05-09T08:56:38;100178.09;;;13.71;100.00
65175;BME280;51761;42.126;24.752;2023-05-09T08:59:05;100176.69;;;13.60;98.54
65175;BME280;51761;42.126;24.752;2023-05-09T09:01:32;100178.50;;;13.50;99.04
65175;BME280;51761;42.126;24.752;2023-05-09T09:03:59;100162.25;;;13.19;100.00
65175;BME280;51761;42.126;24.752;2023-05-09T09:06:27;100164.63;;;13.20;100.00
65175;BME280;51761;42.126;24.752;2023-05-09T09:08:54;100167.00;;;13.22;99.35
65175;BME280;51761;42.126;24.752;2023-05-09T09:11:21;100173.31;;;13.26;100.00
65175;BME280;51761;42.126;24.752;2023-05-09T09:13:49;100178.88;;;13.29;99.13
65175;BME280;51761;42.126;24.752;2023-05-09T09:16:21;100179.13;;;13.38;99.88
65175;BME280;51761;42.126;24.752;2023-05-09T09:18:47;100171.69;;;13.28;99.02
65175;BME280;51761;42.126;24.752;2023-05-09T09:21:14;100175.72;;;13.27;99.89
65175;BME280;51761;42.126;24.752;2023-05-09T09:23:44;100171.00;;;13.44;99.66
65175;BME280;51761;42.126;24.752;2023-05-09T09:26:12;100176.47;;;13.51;100.00
65175;BME280;51761;42.126;24.752;2023-05-09T09:28:38;100182.72;;;13.39;98.52
65175;BME280;51761;42.126;24.752;2023-05-09T09:31:26;100170.66;;;13.42;98.21
65175;BME280;51761;42.126;24.752;2023-05-09T09:33:58;100159.25;;;13.29;98.63
65175;BME280;51761;42.126;24.752;2023-05-09T09:36:29;100181.50;;;13.40;96.91
65175;BME280;51761;42.126;24.752;2023-05-09T09:38:59;100172.22;;;13.43;96.93
65175;BME280;51761;42.126;24.752;2023-05-09T09:41:35;100178.94;;;13.49;96.88
65175;BME280;51761;42.126;24.752;2023-05-09T09:44:07;100178.66;;;13.63;97.40
65175;BME280;51761;42.126;24.752;2023-05-09T09:46:52;100177.72;;;13.69;96.55
65175;BME280;51761;42.126;24.752;2023-05-09T09:49:20;100168.78;;;13.74;95.93
65175;BME280;51761;42.126;24.752;2023-05-09T09:51:50;100175.00;;;13.85;94.70
65175;BME280;51761;42.126;24.752;2023-05-09T09:54:16;100172.75;;;13.96;94.38
65175;BME280;51761;42.126;24.752;2023-05-09T09:56:47;100162.53;;;14.06;94.88
65175;BME280;51761;42.126;24.752;2023-05-09T09:59:17;100151.81;;;14.20;93.25
65175;BME280;51761;42.126;24.752;2023-05-09T10:01:59;100154.56;;;14.24;92.39
65175;BME280;51761;42.126;24.752;2023-05-09T10:04:28;100169.56;;;14.52;92.45
65175;BME280;51761;42.126;24.752;2023-05-09T10:07:05;100151.88;;;14.36;91.29
65175;BME280;51761;42.126;24.752;2023-05-09T10:09:32;100168.63;;;14.39;91.13
65175;BME280;51761;42.126;24.752;2023-05-09T10:12:02;100175.09;;;14.56;89.89
65175;BME280;51761;42.126;24.752;2023-05-09T10:14:30;100173.78;;;14.60;89.45
65175;BME280;51761;42.126;24.752;2023-05-09T10:16:56;100173.31;;;14.46;87.47
65175;BME280;51761;42.126;24.752;2023-05-09T10:19:24;100149.25;;;14.45;86.90
65175;BME280;51761;42.126;24.752;2023-05-09T10:21:53;100175.19;;;14.68;85.47
65175;BME280;51761;42.126;24.752;2023-05-09T10:24:28;100162.97;;;14.59;85.43
65175;BME280;51761;42.126;24.752;2023-05-09T10:27:01;100192.69;;;14.40;86.89
65175;BME280;51761;42.126;24.752;2023-05-09T10:29:33;100182.56;;;14.27;87.79
65175;BME280;51761;42.126;24.752;2023-05-09T10:32:14;100170.53;;;13.88;88.85
65175;BME280;51761;42.126;24.752;2023-05-09T10:34:43;100184.50;;;13.91;90.29
65175;BME280;51761;42.126;24.752;2023-05-09T10:37:10;100189.19;;;13.98;90.12
65175;BME280;51761;42.126;24.752;2023-05-09T10:39:36;100186.16;;;13.89;90.24
65175;BME280;51761;42.126;24.752;2023-05-09T10:42:03;100189.56;;;14.00;90.40
65175;BME280;51761;42.126;24.752;2023-05-09T10:44:30;100192.78;;;13.98;91.14
65175;BME280;51761;42.126;24.752;2023-05-09T10:46:56;100194.16;;;14.10;90.30
65175;BME280;51761;42.126;24.752;2023-05-09T10:49:21;100189.91;;;14.02;90.02
65175;BME280;51761;42.126;24.752;2023-05-09T10:51:49;100191.91;;;14.01;89.64
65175;BME280;51761;42.126;24.752;2023-05-09T10:54:26;100175.88;;;14.02;89.81
65175;BME280;51761;42.126;24.752;2023-05-09T10:56:53;100170.97;;;13.86;90.22
65175;BME280;51761;42.126;24.752;2023-05-09T10:59:32;100199.50;;;14.04;90.58
65175;BME280;51761;42.126;24.752;2023-05-09T11:01:59;100170.97;;;13.86;91.48
65175;BME280;51761;42.126;24.752;2023-05-09T11:04:27;100167.59;;;13.95;91.23
65175;BME280;51761;42.126;24.752;2023-05-09T11:06:52;100184.81;;;14.16;90.77
65175;BME280;51761;42.126;24.752;2023-05-09T11:09:33;100183.25;;;14.15;91.07
65175;BME280;51761;42.126;24.752;2023-05-09T11:14:45;100181.47;;;14.40;88.80
65175;BME280;51761;42.126;24.752;2023-05-09T11:17:27;100174.91;;;14.47;87.16
65175;BME280;51761;42.126;24.752;2023-05-09T11:19:58;100179.69;;;14.30;87.87
65175;BME280;51761;42.126;24.752;2023-05-09T11:24:58;100145.97;;;14.11;89.30
65175;BME280;51761;42.126;24.752;2023-05-09T11:27:26;100146.63;;;14.38;88.75
65175;BME280;51761;42.126;24.752;2023-05-09T11:30:04;100171.56;;;14.52;87.64
65175;BME280;51761;42.126;24.752;2023-05-09T11:32:31;100151.47;;;14.53;87.31
65175;BME280;51761;42.126;24.752;2023-05-09T11:35:10;100173.09;;;14.72;86.03
65175;BME280;51761;42.126;24.752;2023-05-09T11:37:49;100168.97;;;14.77;85.98
65175;BME280;51761;42.126;24.752;2023-05-09T11:40:17;100163.34;;;14.61;85.21
65175;BME280;51761;42.126;24.752;2023-05-09T11:42:47;100164.75;;;14.69;85.12
65175;BME280;51761;42.126;24.752;2023-05-09T11:45:15;100160.63;;;14.73;85.91
65175;BME280;51761;42.126;24.752;2023-05-09T11:47:41;100155.00;;;14.73;84.87
65175;BME280;51761;42.126;24.752;2023-05-09T11:50:10;100166.78;;;14.84;83.88
65175;BME280;51761;42.126;24.752;2023-05-09T11:52:37;100172.06;;;14.98;84.49
65175;BME280;51761;42.126;24.752;2023-05-09T11:55:10;100165.53;;;15.01;83.97
65175;BME280;51761;42.126;24.752;2023-05-09T11:57:40;100166.88;;;15.13;82.88
65175;BME280;51761;42.126;24.752;2023-05-09T12:00:07;100162.03;;;15.13;82.21
65175;BME280;51761;42.126;24.752;2023-05-09T12:02:35;100169.16;;;15.18;82.40
65175;BME280;51761;42.126;24.752;2023-05-09T12:07:37;100162.41;;;15.31;81.16
65175;BME280;51761;42.126;24.752;2023-05-09T12:10:11;100160.59;;;15.53;81.53
65175;BME280;51761;42.126;24.752;2023-05-09T12:12:42;100146.22;;;15.19;80.78
65175;BME280;51761;42.126;24.752;2023-05-09T12:15:09;100163.88;;;15.36;81.43
65175;BME280;51761;42.126;24.752;2023-05-09T12:17:35;100164.00;;;15.32;80.34
65175;BME280;51761;42.126;24.752;2023-05-09T12:20:01;100156.69;;;15.19;81.25
65175;BME280;51761;42.126;24.752;2023-05-09T12:22:29;100157.19;;;15.14;80.61
65175;BME280;51761;42.126;24.752;2023-05-09T12:24:55;100160.19;;;15.07;80.61
65175;BME280;51761;42.126;24.752;2023-05-09T12:27:22;100151.66;;;14.94;81.48
65175;BME280;51761;42.126;24.752;2023-05-09T12:29:48;100127.41;;;14.84;81.08
65175;BME280;51761;42.126;24.752;2023-05-09T12:32:17;100141.13;;;14.98;80.88
65175;BME280;51761;42.126;24.752;2023-05-09T12:34:42;100147.00;;;14.88;81.35
65175;BME280;51761;42.126;24.752;2023-05-09T12:37:17;100125.13;;;14.79;82.03
65175;BME280;51761;42.126;24.752;2023-05-09T12:42:29;100111.75;;;14.99;81.35
65175;BME280;51761;42.126;24.752;2023-05-09T12:44:55;100119.75;;;15.33;79.68
65175;BME280;51761;42.126;24.752;2023-05-09T12:47:21;100118.84;;;15.36;78.22
65175;BME280;51761;42.126;24.752;2023-05-09T12:49:49;100125.56;;;15.54;79.10
65175;BME280;51761;42.126;24.752;2023-05-09T12:52:19;100127.81;;;15.75;77.98
65175;BME280;51761;42.126;24.752;2023-05-09T12:54:47;100127.19;;;15.96;78.47
65175;BME280;51761;42.126;24.752;2023-05-09T12:57:23;100101.34;;;15.85;77.38
65175;BME280;51761;42.126;24.752;2023-05-09T12:59:57;100123.16;;;15.97;77.30
65175;BME280;51761;42.126;24.752;2023-05-09T13:02:25;100120.22;;;16.13;77.03
65175;BME280;51761;42.126;24.752;2023-05-09T13:05:06;100107.91;;;15.94;76.07
65175;BME280;51761;42.126;24.752;2023-05-09T13:10:12;100108.56;;;15.86;77.95
65175;BME280;51761;42.126;24.752;2023-05-09T13:12:38;100105.03;;;15.70;77.24
65175;BME280;51761;42.126;24.752;2023-05-09T13:15:05;100107.16;;;15.66;77.04
65175;BME280;51761;42.126;24.752;2023-05-09T13:17:31;100110.09;;;15.62;77.86
65175;BME280;51761;42.126;24.752;2023-05-09T13:19:56;100093.28;;;15.30;78.36
65175;BME280;51761;42.126;24.752;2023-05-09T13:22:22;100113.34;;;15.32;78.07
65175;BME280;51761;42.126;24.752;2023-05-09T13:24:47;100102.22;;;15.25;78.67
65175;BME280;51761;42.126;24.752;2023-05-09T13:27:13;100110.78;;;15.22;78.79
65175;BME280;51761;42.126;24.752;2023-05-09T13:29:38;100107.09;;;15.09;78.98
65175;BME280;51761;42.126;24.752;2023-05-09T13:32:04;100112.03;;;15.05;79.43
65175;BME280;51761;42.126;24.752;2023-05-09T13:34:30;100110.88;;;15.02;79.92
65175;BME280;51761;42.126;24.752;2023-05-09T13:36:55;100109.66;;;15.03;79.69
65175;BME280;51761;42.126;24.752;2023-05-09T13:39:21;100078.81;;;14.84;80.30
65175;BME280;51761;42.126;24.752;2023-05-09T13:41:46;100108.25;;;14.95;81.59
65175;BME280;51761;42.126;24.752;2023-05-09T13:44:13;100084.88;;;14.82;81.72
65175;BME280;51761;42.126;24.752;2023-05-09T13:46:39;100101.66;;;15.02;82.60
65175;BME280;51761;42.126;24.752;2023-05-09T13:49:04;100099.09;;;15.07;82.90
65175;BME280;51761;42.126;24.752;2023-05-09T13:51:30;100081.13;;;14.89;82.53
65175;BME280;51761;42.126;24.752;2023-05-09T13:53:56;100096.19;;;15.11;92.20
65175;BME280;51761;42.126;24.752;2023-05-09T13:56:23;100089.84;;;15.23;96.50
65175;BME280;51761;42.126;24.752;2023-05-09T13:58:49;100105.53;;;15.52;87.80
65175;BME280;51761;42.126;24.752;2023-05-09T14:01:14;100106.41;;;15.49;81.14
65175;BME280;51761;42.126;24.752;2023-05-09T14:03:40;100104.81;;;15.20;80.66
65175;BME280;51761;42.126;24.752;2023-05-09T14:06:06;100104.59;;;15.27;84.79
65175;BME280;51761;42.126;24.752;2023-05-09T14:08:33;100104.19;;;15.28;82.70
65175;BME280;51761;42.126;24.752;2023-05-09T14:10:59;100097.13;;;15.20;82.76
65175;BME280;51761;42.126;24.752;2023-05-09T14:13:24;100106.03;;;15.19;81.31
65175;BME280;51761;42.126;24.752;2023-05-09T14:15:49;100103.22;;;15.19;81.96
65175;BME280;51761;42.126;24.752;2023-05-09T14:18:15;100091.19;;;15.02;80.34
65175;BME280;51761;42.126;24.752;2023-05-09T14:20:40;100111.94;;;14.92;80.69
65175;BME280;51761;42.126;24.752;2023-05-09T14:23:06;100103.69;;;14.85;81.52
65175;BME280;51761;42.126;24.752;2023-05-09T14:25:32;100106.69;;;14.78;81.47
65175;BME280;51761;42.126;24.752;2023-05-09T14:27:57;100114.84;;;14.73;82.15
65175;BME280;51761;42.126;24.752;2023-05-09T14:30:23;100116.09;;;14.72;82.58